Time;durP1;ratioP1;P1;durP2;ratioP2;P2;SDS_P1;SDS_P2;PMS_P1;PMS_P2;Temp;Humidity;BMP_temperature;BMP_pressure;BME280_temperature;BME280_humidity;BME280_pressure;Samples;Min_cycle;Max_cycle;Signal;HPM_P1;HPM_P2
2022/08/23 00:01:29;;;;;;;8.18;3.70;;;18.20;99.90;;;;;;4994927;28;20054;-82
2022/08/23 00:04:03;;;;;;;8.82;4.40;;;18.00;99.90;;;;;;4993296;28;20445;-82
2022/08/23 00:06:31;;;;;;;11.27;4.40;;;17.90;99.90;;;;;;4989892;28;20795;-82
2022/08/23 00:08:57;;;;;;;7.80;4.07;;;17.80;99.90;;;;;;4989560;28;20100;-84
2022/08/23 00:11:34;;;;;;;9.30;4.03;;;17.70;99.90;;;;;;4992531;28;20481;-83
2022/08/23 00:14:07;;;;;;;9.50;4.22;;;17.70;99.90;;;;;;4986712;28;20529;-82
2022/08/23 00:16:33;;;;;;;9.20;4.18;;;17.70;99.90;;;;;;4992606;28;20031;-84
2022/08/23 00:18:59;;;;;;;9.38;3.92;;;17.60;99.90;;;;;;4988298;28;20026;-83
2022/08/23 00:21:25;;;;;;;8.50;3.88;;;17.50;99.90;;;;;;4994609;28;20029;-82
2022/08/23 00:23:51;;;;;;;7.63;4.00;;;17.50;99.90;;;;;;4988762;28;20030;-82
2022/08/23 00:26:19;;;;;;;8.70;3.80;;;17.50;99.90;;;;;;4989516;28;20046;-82
2022/08/23 00:28:45;;;;;;;10.52;3.95;;;17.50;99.90;;;;;;4988346;28;20035;-82
2022/08/23 00:31:10;;;;;;;7.95;4.20;;;17.50;99.90;;;;;;4999699;28;20038;-82
2022/08/23 00:33:36;;;;;;;10.50;4.15;;;17.40;99.90;;;;;;4990698;28;20030;-82
2022/08/23 00:36:02;;;;;;;8.45;3.90;;;17.50;99.90;;;;;;4986363;28;20130;-82
2022/08/23 00:38:28;;;;;;;10.32;4.10;;;17.50;99.90;;;;;;4990408;28;20038;-82
2022/08/23 00:40:53;;;;;;;10.77;4.22;;;17.50;99.90;;;;;;4989015;28;20073;-82
2022/08/23 00:49:03;;;;;;;8.40;4.00;;;17.20;99.90;;;;;;4987217;28;20517;-84
2022/08/23 00:51:35;;;;;;;10.90;4.10;;;17.20;99.90;;;;;;4987671;28;20511;-82
2022/08/23 00:54:02;;;;;;;9.38;4.22;;;17.10;99.90;;;;;;4985978;28;20105;-82
2022/08/23 00:56:32;;;;;;;8.52;4.40;;;16.90;99.90;;;;;;4983945;28;20050;-81
2022/08/23 00:58:58;;;;;;;;;;;16.80;99.90;;;;;;4989532;28;20514;-82
2022/08/23 01:01:24;;;;;;;9.48;4.88;;;16.80;99.90;;;;;;4987752;28;19945;-82
2022/08/23 01:03:54;;;;;;;8.93;4.47;;;16.70;99.90;;;;;;4988161;28;20019;-82
2022/08/23 01:06:38;;;;;;;9.10;4.50;;;16.50;99.90;;;;;;4988326;28;20414;-82
2022/08/23 01:09:13;;;;;;;13.52;4.55;;;16.40;99.90;;;;;;5002481;28;20580;-82
2022/08/23 01:11:47;;;;;;;8.70;4.53;;;16.40;99.90;;;;;;4987252;28;20121;-83
2022/08/23 01:14:17;;;;;;;10.55;5.25;;;16.50;99.90;;;;;;4985069;28;20026;-84
2022/08/23 01:16:53;;;;;;;9.65;4.90;;;16.50;99.90;;;;;;4990032;28;20549;-82
2022/08/23 01:19:26;;;;;;;9.73;5.32;;;16.40;99.90;;;;;;4989659;28;20026;-82
2022/08/23 01:22:12;;;;;;;11.60;5.60;;;16.40;99.90;;;;;;5004597;28;20045;-84
2022/08/23 01:24:39;;;;;;;8.38;4.72;;;16.30;99.90;;;;;;4977627;28;20042;-84
2022/08/23 01:27:05;;;;;;;10.90;5.45;;;16.20;99.90;;;;;;4992862;28;20044;-82
2022/08/23 01:29:31;;;;;;;9.15;4.93;;;16.10;99.90;;;;;;4991155;28;20038;-82
2022/08/23 01:31:57;;;;;;;14.20;5.80;;;16.00;99.90;;;;;;4988703;28;20089;-84
2022/08/23 01:34:25;;;;;;;10.10;5.57;;;16.00;99.90;;;;;;4990625;28;20041;-82
2022/08/23 01:36:52;;;;;;;10.40;5.32;;;15.90;99.90;;;;;;4989689;28;20053;-82
2022/08/23 01:39:17;;;;;;;8.73;5.05;;;16.00;99.90;;;;;;4988950;28;20022;-82
2022/08/23 01:41:43;;;;;;;11.52;5.68;;;16.10;99.90;;;;;;4988717;28;20088;-82
2022/08/23 01:44:09;;;;;;;10.05;5.40;;;16.00;99.90;;;;;;4989166;28;20110;-84
2022/08/23 01:46:35;;;;;;;9.65;5.57;;;16.00;99.90;;;;;;4989874;28;20496;-84
2022/08/23 01:49:03;;;;;;;10.63;5.35;;;16.00;99.90;;;;;;4989267;28;20034;-84
2022/08/23 01:51:29;;;;;;;11.38;5.60;;;15.90;99.90;;;;;;4987658;28;20154;-84
2022/08/23 01:53:55;;;;;;;10.98;5.57;;;15.90;99.90;;;;;;4979574;28;20030;-84
2022/08/23 01:56:23;;;;;;;11.07;5.72;;;15.90;99.90;;;;;;4985876;28;20040;-82
2022/08/23 01:58:49;;;;;;;12.40;5.45;;;15.90;99.90;;;;;;4988419;28;20022;-83
2022/08/23 02:01:16;;;;;;;9.60;5.47;;;15.90;99.90;;;;;;4982542;28;20022;-84
2022/08/23 02:03:41;;;;;;;12.27;5.57;;;16.00;99.90;;;;;;4986929;28;20026;-84
2022/08/23 02:06:07;;;;;;;10.70;5.90;;;16.00;99.90;;;;;;4983550;28;20113;-84
2022/08/23 02:09:16;;;;;;;9.75;5.57;;;15.90;99.90;;;;;;4988319;28;20411;-84
2022/08/23 02:11:24;;;;;;;16.20;5.78;;;15.80;99.90;;;;;;4985079;28;20034;-84
2022/08/23 02:13:52;;;;;;;11.70;5.68;;;15.80;99.90;;;;;;4981074;28;20030;-84
2022/08/23 02:16:30;;;;;;;10.07;5.90;;;15.80;99.90;;;;;;4985936;28;20061;-84
2022/08/23 02:18:57;;;;;;;12.50;6.22;;;15.70;99.90;;;;;;4987099;28;20407;-84
2022/08/23 02:21:24;;;;;;;10.40;5.85;;;15.70;99.90;;;;;;4990910;28;20033;-83
2022/08/23 02:23:52;;;;;;;10.02;6.07;;;15.70;99.90;;;;;;4998777;28;20061;-84
2022/08/23 02:26:18;;;;;;;11.20;6.38;;;15.60;99.90;;;;;;4977110;28;20507;-83
2022/08/23 02:28:45;;;;;;;12.10;6.43;;;15.50;99.90;;;;;;4989609;28;20085;-84
2022/08/23 02:31:11;;;;;;;10.05;5.97;;;15.40;99.90;;;;;;4991398;28;20022;-84
2022/08/23 02:33:37;;;;;;;11.90;6.15;;;15.40;99.90;;;;;;4990373;28;20068;-84
2022/08/23 02:36:03;;;;;;;11.85;6.30;;;15.50;99.90;;;;;;4987004;28;20067;-84
2022/08/23 02:38:28;;;;;;;12.80;6.30;;;15.60;99.90;;;;;;4989524;28;20473;-82
2022/08/23 02:40:54;;;;;;;10.52;5.55;;;15.70;99.90;;;;;;4990078;28;20081;-83
2022/08/23 02:43:20;;;;;;;11.40;5.85;;;15.90;99.90;;;;;;4992269;28;20014;-83
2022/08/23 02:45:45;;;;;;;11.98;5.32;;;16.00;99.90;;;;;;4989661;28;20041;-83
2022/08/23 02:48:11;;;;;;;11.00;5.75;;;16.10;99.90;;;;;;4984703;28;20037;-84
2022/08/23 02:50:37;;;;;;;10.40;5.68;;;16.20;99.90;;;;;;4990257;28;20026;-82
2022/08/23 02:53:03;;;;;;;10.85;5.43;;;16.00;99.90;;;;;;4988093;28;20022;-81
2022/08/23 02:55:29;;;;;;;15.20;6.13;;;16.00;99.90;;;;;;4989915;28;20495;-84
2022/08/23 02:57:54;;;;;;;10.10;5.22;;;15.80;99.90;;;;;;4991183;28;20042;-84
2022/08/23 03:00:20;;;;;;;12.98;6.28;;;15.70;99.90;;;;;;4978975;28;20037;-84
2022/08/23 03:02:46;;;;;;;11.40;5.95;;;15.60;99.90;;;;;;4987895;28;20027;-83
2022/08/23 03:05:13;;;;;;;12.38;6.35;;;15.40;99.90;;;;;;4986294;28;20533;-84
2022/08/23 03:07:39;;;;;;;12.73;6.53;;;15.30;99.90;;;;;;4993617;28;20080;-84
2022/08/23 03:10:06;;;;;;;11.35;6.30;;;15.20;99.90;;;;;;4994965;28;20537;-84
2022/08/23 03:12:32;;;;;;;11.50;6.65;;;15.10;99.90;;;;;;4991130;28;20045;-83
2022/08/23 03:14:58;;;;;;;11.30;6.72;;;15.10;99.90;;;;;;4979940;28;20035;-84
2022/08/23 03:17:24;;;;;;;12.20;6.90;;;15.00;99.90;;;;;;4986640;28;20038;-84
2022/08/23 03:19:51;;;;;;;15.18;7.07;;;15.00;99.90;;;;;;4988171;28;20033;-83
2022/08/23 03:22:17;;;;;;;12.15;6.63;;;15.00;99.90;;;;;;4987451;28;20028;-83
2022/08/23 03:24:43;;;;;;;12.88;6.85;;;15.00;99.90;;;;;;4984563;28;20505;-84
2022/08/23 03:27:09;;;;;;;13.40;7.00;;;14.90;99.90;;;;;;4982137;28;20107;-84
2022/08/23 03:29:35;;;;;;;13.63;7.03;;;14.80;99.90;;;;;;4984695;28;20031;-84
2022/08/23 03:32:02;;;;;;;12.10;6.85;;;14.90;99.90;;;;;;4989499;28;20104;-84
2022/08/23 03:34:29;;;;;;;12.50;7.50;;;14.90;99.90;;;;;;4991493;28;20022;-82
2022/08/23 03:36:55;;;;;;;11.90;6.38;;;14.90;99.90;;;;;;4987926;28;20062;-82
2022/08/23 03:39:21;;;;;;;12.00;6.85;;;14.90;99.90;;;;;;5005517;28;20486;-81
2022/08/23 03:41:47;;;;;;;11.07;6.40;;;15.00;99.90;;;;;;4990903;28;20033;-82
2022/08/23 03:44:13;;;;;;;11.55;6.70;;;14.90;99.90;;;;;;4991429;28;20022;-81
2022/08/23 03:46:38;;;;;;;13.32;6.60;;;15.00;99.90;;;;;;4993900;28;20475;-81
2022/08/23 03:49:04;;;;;;;13.32;6.78;;;14.90;99.90;;;;;;4994015;28;20426;-82
2022/08/23 03:51:31;;;;;;;14.05;6.97;;;14.90;99.90;;;;;;4989567;28;20500;-81
2022/08/23 03:53:57;;;;;;;12.30;6.85;;;14.80;99.90;;;;;;4988213;28;20026;-82
2022/08/23 03:56:30;;;;;;;15.15;6.28;;;14.80;99.90;;;;;;4988499;28;20042;-82
2022/08/23 03:58:58;;;;;;;13.88;6.82;;;14.80;99.90;;;;;;4988670;28;20022;-82
2022/08/23 04:01:24;;;;;;;10.73;6.28;;;14.70;99.90;;;;;;4990076;28;20022;-82
2022/08/23 04:03:49;;;;;;;11.68;7.13;;;14.70;99.90;;;;;;4987984;28;20186;-82
2022/08/23 04:06:16;;;;;;;11.65;6.80;;;14.80;99.90;;;;;;5002742;28;20050;-81
2022/08/23 04:08:43;;;;;;;10.98;6.50;;;14.80;99.90;;;;;;4986731;28;20049;-81
2022/08/23 04:11:11;;;;;;;10.15;6.30;;;15.00;99.90;;;;;;4988499;28;20452;-81
2022/08/23 04:13:38;;;;;;;10.27;6.47;;;15.00;99.90;;;;;;4987229;28;20553;-81
2022/08/23 04:16:04;;;;;;;12.75;6.97;;;15.00;99.90;;;;;;4989903;28;20026;-82
2022/08/23 04:18:31;;;;;;;11.43;6.75;;;15.00;99.90;;;;;;4981687;28;20134;-81
2022/08/23 04:20:59;;;;;;;10.93;6.15;;;15.00;99.90;;;;;;4986849;28;20074;-82
2022/08/23 04:23:26;;;;;;;11.65;6.43;;;14.90;99.90;;;;;;4984807;28;20026;-82
2022/08/23 04:25:53;;;;;;;13.25;6.47;;;15.00;99.90;;;;;;4989772;28;20038;-81
2022/08/23 04:28:19;;;;;;;10.75;6.13;;;15.00;99.90;;;;;;4990942;28;20023;-81
2022/08/23 04:30:45;;;;;;;11.88;6.50;;;15.00;99.90;;;;;;4988385;28;20080;-82
2022/08/23 04:33:11;;;;;;;11.30;5.95;;;14.90;99.90;;;;;;4980990;28;20660;-82
2022/08/23 04:35:37;;;;;;;12.82;6.43;;;15.00;99.90;;;;;;4987762;28;20026;-82
2022/08/23 04:38:03;;;;;;;11.20;6.35;;;15.00;99.90;;;;;;4984866;28;20129;-82
2022/08/23 04:43:12;;;;;;;10.98;6.45;;;14.90;99.90;;;;;;4986126;28;20033;-83
2022/08/23 04:45:39;;;;;;;11.98;6.47;;;15.00;99.90;;;;;;4983140;28;20030;-83
2022/08/23 04:48:05;;;;;;;12.52;6.88;;;14.90;99.90;;;;;;4988297;28;20403;-84
2022/08/23 04:50:31;;;;;;;12.73;6.82;;;14.90;99.90;;;;;;4981205;28;20031;-84
2022/08/23 04:52:57;;;;;;;12.13;6.68;;;15.00;99.90;;;;;;4989212;28;20022;-84
2022/08/23 04:55:23;;;;;;;13.52;6.35;;;15.00;99.90;;;;;;4991087;28;20785;-84
2022/08/23 04:57:48;;;;;;;12.00;5.80;;;15.00;99.90;;;;;;4987117;28;21028;-84
2022/08/23 05:00:15;;;;;;;10.30;6.30;;;15.10;99.90;;;;;;4986486;28;20090;-83
2022/08/23 05:02:41;;;;;;;11.65;6.45;;;15.20;99.90;;;;;;4979138;28;20065;-83
2022/08/23 05:05:09;;;;;;;12.52;5.90;;;15.30;99.90;;;;;;4980367;28;20482;-84
2022/08/23 05:07:36;;;;;;;12.15;6.28;;;15.40;99.90;;;;;;4983739;28;20030;-83
2022/08/23 05:10:03;;;;;;;10.98;5.68;;;15.50;99.90;;;;;;4987632;28;20529;-83
2022/08/23 05:12:29;;;;;;;13.77;6.20;;;15.60;99.90;;;;;;4986883;28;20032;-84
2022/08/23 05:14:54;;;;;;;11.82;6.30;;;15.80;99.90;;;;;;4998317;28;20030;-83
2022/08/23 05:17:20;;;;;;;13.80;5.70;;;15.90;99.90;;;;;;4987591;28;20022;-83
2022/08/23 05:19:46;;;;;;;15.70;6.57;;;15.90;99.90;;;;;;4979253;28;20862;-84
2022/08/23 05:22:11;;;;;;;9.98;5.43;;;16.10;99.90;;;;;;4979904;28;20056;-84
2022/08/23 05:24:37;;;;;;;10.25;3.75;;;16.10;99.90;;;;;;4987128;28;20607;-84
2022/08/23 05:27:03;;;;;;;9.30;4.75;;;16.40;99.90;;;;;;4981847;28;20440;-84
2022/08/23 05:29:28;;;;;;;8.35;4.40;;;16.60;99.90;;;;;;4983609;28;20030;-83
2022/08/23 05:31:55;;;;;;;8.32;4.82;;;16.70;99.90;;;;;;4983192;28;20039;-84
2022/08/23 05:34:21;;;;;;;9.15;5.15;;;16.70;99.90;;;;;;4987474;28;20022;-84
2022/08/23 05:36:48;;;;;;;8.73;4.20;;;16.80;99.90;;;;;;4980533;28;20026;-84
2022/08/23 05:39:15;;;;;;;8.13;4.20;;;16.90;99.90;;;;;;4979381;28;20387;-85
2022/08/23 05:41:41;;;;;;;9.73;4.40;;;17.10;99.90;;;;;;4986082;28;20056;-85
2022/08/23 05:44:09;;;;;;;15.13;4.80;;;17.40;99.90;;;;;;4995842;28;20502;-85
2022/08/23 05:46:34;;;;;;;10.75;4.82;;;17.60;99.90;;;;;;4985073;28;20034;-85
2022/08/23 05:49:00;;;;;;;9.52;4.65;;;17.70;99.90;;;;;;4988464;28;20109;-84
2022/08/23 05:51:31;;;;;;;9.05;4.22;;;17.80;99.90;;;;;;4990009;28;20056;-85
2022/08/23 05:54:00;;;;;;;11.52;5.13;;;17.90;99.90;;;;;;4996614;28;20015;-85
2022/08/23 05:56:27;;;;;;;9.70;4.38;;;18.00;99.90;;;;;;4987371;28;20062;-84
2022/08/23 05:58:57;;;;;;;8.52;4.10;;;18.00;99.90;;;;;;4979168;28;20031;-84
2022/08/23 06:01:23;;;;;;;11.45;4.53;;;18.20;99.90;;;;;;4983960;28;20026;-82
2022/08/23 06:03:50;;;;;;;11.63;4.05;;;18.20;99.90;;;;;;4992131;28;20040;-82
2022/08/23 06:06:17;;;;;;;9.40;4.38;;;18.40;99.90;;;;;;4995664;28;20443;-82
2022/08/23 06:08:47;;;;;;;7.55;3.35;;;18.70;99.90;;;;;;5008036;28;20034;-85
2022/08/23 06:11:19;;;;;;;9.30;3.97;;;18.80;99.90;;;;;;4994177;28;20077;-82
2022/08/23 06:13:48;;;;;;;8.32;3.17;;;19.10;99.90;;;;;;4993783;28;20045;-82
2022/08/23 06:16:17;;;;;;;8.15;3.88;;;19.20;99.90;;;;;;5000464;28;20038;-82
2022/08/23 06:18:44;;;;;;;8.40;2.90;;;19.60;99.90;;;;;;4990326;28;20085;-82
2022/08/23 06:21:11;;;;;;;9.32;2.95;;;20.00;99.90;;;;;;4991904;28;20050;-82
2022/08/23 06:23:37;;;;;;;9.18;3.25;;;20.10;99.90;;;;;;5007798;28;20025;-83
2022/08/23 06:26:30;;;;;;;8.18;2.90;;;20.20;99.90;;;;;;4993506;28;20436;-83
2022/08/23 06:28:57;;;;;;;7.65;2.90;;;20.40;99.90;;;;;;4991558;28;20027;-83
2022/08/23 06:34:13;;;;;;;7.18;2.83;;;20.90;99.90;;;;;;4996055;28;20046;-83
2022/08/23 06:36:39;;;;;;;7.93;3.23;;;21.00;99.90;;;;;;4990514;28;20022;-83
2022/08/23 06:39:06;;;;;;;9.15;3.00;;;21.10;99.90;;;;;;5000628;28;20291;-83
2022/08/23 06:41:32;;;;;;;9.35;3.05;;;21.30;99.90;;;;;;4996870;28;20486;-83
2022/08/23 06:43:57;;;;;;;8.60;2.90;;;21.30;99.90;;;;;;4998929;28;20026;-83
2022/08/23 06:46:26;;;;;;;9.13;2.85;;;21.30;99.90;;;;;;4997227;28;20031;-83
2022/08/23 06:48:52;;;;;;;8.57;2.95;;;21.50;99.90;;;;;;4998832;28;20038;-83
2022/08/23 06:51:27;;;;;;;8.68;2.88;;;21.60;99.90;;;;;;4996063;28;20058;-83
2022/08/23 06:53:56;;;;;;;7.00;2.75;;;21.70;99.90;;;;;;4987820;28;20030;-83
2022/08/23 06:56:23;;;;;;;9.02;2.88;;;21.80;99.90;;;;;;4992040;28;20267;-83
2022/08/23 06:58:51;;;;;;;12.45;3.00;;;21.90;99.60;;;;;;4991768;28;20049;-83
2022/08/23 07:01:35;;;;;;;10.90;2.92;;;22.00;99.40;;;;;;4994223;28;20018;-83
2022/08/23 07:04:03;;;;;;;6.60;3.00;;;22.10;99.70;;;;;;5006649;28;20092;-83
2022/08/23 07:06:29;;;;;;;7.90;2.85;;;22.20;99.40;;;;;;4986449;28;20051;-83
2022/08/23 07:08:57;;;;;;;9.05;3.00;;;22.30;99.00;;;;;;4996672;28;20038;-82
2022/08/23 07:11:24;;;;;;;10.50;2.80;;;22.30;98.50;;;;;;4990042;28;20026;-83
2022/08/23 07:13:51;;;;;;;8.15;2.83;;;22.40;98.30;;;;;;4995473;28;20050;-83
2022/08/23 07:16:18;;;;;;;7.25;2.88;;;22.50;98.20;;;;;;4993923;28;20128;-83
2022/08/23 07:18:45;;;;;;;8.32;2.88;;;22.60;98.30;;;;;;4992688;28;20045;-82
2022/08/23 07:21:12;;;;;;;10.68;3.10;;;22.70;97.30;;;;;;5011742;28;20434;-83
2022/08/23 07:23:39;;;;;;;8.80;2.80;;;22.80;97.30;;;;;;4991359;28;20136;-82
2022/08/23 07:26:11;;;;;;;7.25;2.88;;;22.70;96.90;;;;;;5013487;28;20026;-82
2022/08/23 07:28:40;;;;;;;9.85;3.08;;;22.80;97.00;;;;;;4999643;28;20030;-84
2022/08/23 07:31:09;;;;;;;8.18;2.78;;;22.90;96.50;;;;;;4989341;28;20026;-83
2022/08/23 07:33:37;;;;;;;9.77;2.95;;;22.90;96.30;;;;;;4997567;28;20117;-83
2022/08/23 07:36:03;;;;;;;9.50;3.03;;;23.10;96.50;;;;;;4999132;28;20105;-84
2022/08/23 07:38:29;;;;;;;9.70;2.85;;;23.20;96.40;;;;;;4997461;28;20022;-84
2022/08/23 07:40:55;;;;;;;9.68;2.75;;;23.30;96.10;;;;;;4993307;28;20428;-83
2022/08/23 07:43:21;;;;;;;12.73;2.97;;;23.40;95.60;;;;;;4996396;28;20443;-84
2022/08/23 07:45:48;;;;;;;8.40;3.17;;;23.50;96.00;;;;;;4990269;28;20789;-83
2022/08/23 07:48:14;;;;;;;7.35;2.97;;;23.70;95.50;;;;;;4994527;28;20026;-83
2022/08/23 07:50:40;;;;;;;8.32;3.00;;;23.70;95.20;;;;;;5002143;28;20027;-84
2022/08/23 07:53:07;;;;;;;9.35;3.20;;;23.70;95.40;;;;;;4996056;28;20026;-84
2022/08/23 07:55:33;;;;;;;9.15;3.83;;;23.80;94.70;;;;;;4994515;28;20399;-84
2022/08/23 07:57:59;;;;;;;10.07;3.17;;;23.80;94.50;;;;;;4990744;28;20056;-84
2022/08/23 08:00:25;;;;;;;6.95;2.97;;;24.00;94.10;;;;;;4981246;28;20468;-84
2022/08/23 08:02:50;;;;;;;11.23;2.80;;;24.00;93.90;;;;;;4993680;28;20101;-84
2022/08/23 08:05:16;;;;;;;8.02;3.25;;;24.20;94.00;;;;;;4992460;28;20050;-83
2022/08/23 08:07:42;;;;;;;7.75;3.10;;;24.40;93.40;;;;;;4995596;28;20439;-83
2022/08/23 08:10:08;;;;;;;6.70;2.80;;;24.60;93.10;;;;;;4990150;28;20034;-83
2022/08/23 08:12:34;;;;;;;8.52;3.08;;;24.70;93.50;;;;;;4997146;28;20049;-83
2022/08/23 08:15:00;;;;;;;6.68;2.85;;;24.70;93.30;;;;;;4998015;28;20022;-84
2022/08/23 08:17:26;;;;;;;10.05;3.28;;;24.80;93.20;;;;;;4994902;28;20084;-83
2022/08/23 08:19:52;;;;;;;10.45;3.10;;;25.10;92.60;;;;;;4996169;28;20809;-84
2022/08/23 08:22:17;;;;;;;9.38;2.70;;;25.20;92.40;;;;;;4995380;28;20026;-83
2022/08/23 08:24:43;;;;;;;7.07;2.67;;;25.60;91.00;;;;;;4993753;28;20457;-83
2022/08/23 08:27:09;;;;;;;6.65;2.80;;;25.90;90.30;;;;;;4994531;28;20030;-83
2022/08/23 08:29:35;;;;;;;7.95;2.80;;;26.60;89.00;;;;;;4992827;28;20037;-83
2022/08/23 08:32:01;;;;;;;8.73;2.92;;;27.00;87.30;;;;;;4990441;28;20026;-83
2022/08/23 08:34:27;;;;;;;7.38;2.92;;;27.30;85.20;;;;;;4995300;28;20037;-84
2022/08/23 08:36:55;;;;;;;7.88;2.92;;;27.60;84.70;;;;;;4994730;28;20722;-83
2022/08/23 08:39:27;;;;;;;7.63;2.70;;;28.20;82.90;;;;;;4995443;28;20111;-83
2022/08/23 08:42:03;;;;;;;8.70;3.00;;;28.90;80.70;;;;;;4994183;28;20359;-84
2022/08/23 08:44:50;;;;;;;10.20;3.40;;;29.20;79.00;;;;;;4994672;28;20076;-84
2022/08/23 08:47:28;;;;;;;7.80;2.70;;;29.40;78.30;;;;;;4991639;28;20018;-83
2022/08/23 08:50:22;;;;;;;7.38;3.00;;;29.60;77.10;;;;;;4993563;28;20476;-83
2022/08/23 08:53:00;;;;;;;8.63;2.65;;;29.50;77.10;;;;;;4993686;28;20102;-83
2022/08/23 08:55:40;;;;;;;8.60;3.05;;;30.00;75.90;;;;;;4988167;28;20182;-83
2022/08/23 08:58:05;;;;;;;;;;;30.20;74.40;;;;;;4988028;28;20501;-84
2022/08/23 09:00:35;;;;;;;6.82;2.88;;;30.70;74.80;;;;;;4990863;28;20059;-83
2022/08/23 09:03:07;;;;;;;11.05;3.40;;;30.10;73.00;;;;;;4991516;28;20029;-83
2022/08/23 09:05:36;;;;;;;8.65;2.55;;;30.20;74.20;;;;;;4994036;28;20039;-83
2022/08/23 09:08:02;;;;;;;;;;;30.60;73.20;;;;;;4996154;28;20038;-83
2022/08/23 09:10:53;;;;;;;7.60;3.15;;;31.50;72.00;;;;;;5009330;28;19906;-83
2022/08/23 09:13:35;;;;;;;6.43;2.80;;;31.50;70.50;;;;;;4988565;28;20041;-83
2022/08/23 09:16:34;;;;;;;7.47;2.95;;;31.90;70.80;;;;;;5006611;28;20022;-84
2022/08/23 09:19:01;;;;;;;6.78;2.95;;;31.50;69.80;;;;;;4989582;28;20054;-84
2022/08/23 09:21:32;;;;;;;6.63;2.72;;;31.50;69.30;;;;;;4993413;28;20034;-84
2022/08/23 09:23:57;;;;;;;6.03;2.65;;;31.30;69.60;;;;;;4994155;28;20024;-84
2022/08/23 09:26:29;;;;;;;9.60;3.30;;;30.60;70.30;;;;;;4991925;28;20034;-84
2022/08/23 09:29:00;;;;;;;8.38;3.00;;;30.10;70.40;;;;;;5000197;28;20041;-84
2022/08/23 09:31:41;;;;;;;7.55;2.85;;;30.80;69.90;;;;;;4984855;28;20050;-84
2022/08/23 09:34:13;;;;;;;7.85;2.78;;;31.70;69.00;;;;;;4985045;28;20027;-83
2022/08/23 09:36:39;;;;;;;10.43;2.95;;;32.10;68.40;;;;;;4992807;28;20031;-83
2022/08/23 09:39:24;;;;;;;8.75;2.60;;;31.60;68.60;;;;;;4990070;28;20041;-84
2022/08/23 09:41:50;;;;;;;8.65;2.53;;;32.30;67.80;;;;;;4981899;28;20022;-84
2022/08/23 09:44:30;;;;;;;8.25;2.90;;;32.60;66.90;;;;;;4992641;28;20109;-84
2022/08/23 09:47:16;;;;;;;7.65;2.90;;;32.40;66.80;;;;;;4998721;28;20034;-83
2022/08/23 09:49:47;;;;;;;8.18;2.90;;;32.00;69.20;;;;;;5005896;28;20018;-84
2022/08/23 09:52:36;;;;;;;6.55;2.63;;;33.00;65.00;;;;;;4996061;28;20138;-84
2022/08/23 09:55:03;;;;;;;;;;;33.90;64.20;;;;;;4992625;28;20509;-83
2022/08/23 09:57:32;;;;;;;8.77;2.83;;;32.90;64.70;;;;;;4994291;28;19918;-84
2022/08/23 10:00:32;;;;;;;7.93;2.80;;;33.60;66.70;;;;;;4992766;28;20042;-84
2022/08/23 10:03:21;;;;;;;8.57;3.08;;;33.40;64.60;;;;;;5004627;28;20097;-84
2022/08/23 10:05:59;;;;;;;8.32;3.08;;;33.00;65.60;;;;;;4994461;28;20057;-84
2022/08/23 10:08:33;;;;;;;7.05;2.95;;;33.40;64.80;;;;;;4990692;28;20027;-84
2022/08/23 10:11:11;;;;;;;7.20;2.78;;;34.30;63.40;;;;;;4993629;28;20033;-84
2022/08/23 10:13:40;;;;;;;7.95;2.83;;;33.90;63.60;;;;;;4982095;28;20066;-84
2022/08/23 10:16:54;;;;;;;7.63;3.10;;;33.30;63.80;;;;;;4992130;28;20018;-84
2022/08/23 10:19:20;;;;;;;8.82;3.08;;;33.60;62.60;;;;;;5001478;28;20025;-84
2022/08/23 10:21:51;;;;;;;6.50;2.85;;;34.40;62.00;;;;;;5009783;28;20022;-84
2022/08/23 10:24:45;;;;;;;7.25;3.00;;;34.30;62.70;;;;;;4992671;28;20033;-84
2022/08/23 10:30:26;;;;;;;9.73;3.47;;;35.60;60.80;;;;;;4988515;28;20144;-84
2022/08/23 10:33:07;;;;;;;9.55;2.95;;;35.20;60.20;;;;;;4990068;28;20148;-84
2022/08/23 10:35:57;;;;;;;7.75;3.25;;;35.10;62.60;;;;;;4986659;28;20038;-84
2022/08/23 10:38:37;;;;;;;7.95;2.90;;;35.70;60.60;;;;;;4993991;28;20019;-84
2022/08/23 10:41:16;;;;;;;6.75;2.88;;;35.40;61.10;;;;;;4990904;28;20030;-84
2022/08/23 10:43:51;;;;;;;;;;;34.70;62.30;;;;;;4994111;28;20117;-83
2022/08/23 10:46:21;;;;;;;8.43;3.10;;;35.70;61.70;;;;;;5005263;28;19910;-84
2022/08/23 10:48:54;;;;;;;9.50;2.70;;;35.20;62.60;;;;;;4989650;28;20387;-84
2022/08/23 10:51:28;;;;;;;8.90;2.90;;;35.20;61.70;;;;;;4994571;28;20026;-84
2022/08/23 10:54:06;;;;;;;9.60;3.10;;;35.60;61.00;;;;;;4994329;28;20046;-84
2022/08/23 10:56:33;;;;;;;9.05;2.88;;;35.70;60.60;;;;;;4994933;28;20472;-84
2022/08/23 10:59:10;;;;;;;11.80;2.92;;;36.60;59.90;;;;;;4991612;28;20030;-84
2022/08/23 11:01:44;;;;;;;8.48;3.13;;;36.60;59.20;;;;;;4992326;28;20031;-84
2022/08/23 11:04:32;;;;;;;10.85;2.70;;;35.70;59.00;;;;;;4996676;28;20018;-85
2022/08/23 11:07:00;;;;;;;6.82;2.72;;;36.30;58.70;;;;;;4996897;28;20046;-84
2022/08/23 11:09:26;;;;;;;6.90;2.72;;;35.70;60.60;;;;;;4993842;28;20074;-84
2022/08/23 11:12:10;;;;;;;8.07;3.05;;;36.60;60.10;;;;;;5005376;28;20031;-84
2022/08/23 11:14:41;;;;;;;5.80;2.83;;;36.00;58.80;;;;;;5002677;28;20049;-84
2022/08/23 11:17:24;;;;;;;9.00;2.90;;;35.60;61.70;;;;;;4995745;28;20030;-84
2022/08/23 11:19:51;;;;;;;7.72;3.00;;;36.20;58.40;;;;;;4987563;28;20507;-84
2022/08/23 11:22:22;;;;;;;8.05;3.10;;;34.40;59.10;;;;;;4987751;28;20022;-84
2022/08/23 11:24:52;;;;;;;7.75;2.50;;;35.20;59.90;;;;;;4995846;28;20062;-85
2022/08/23 11:27:27;;;;;;;6.50;2.65;;;35.60;58.50;;;;;;4996633;28;20057;-84
2022/08/23 11:29:54;;;;;;;6.68;2.35;;;36.90;57.10;;;;;;4993689;28;20066;-84
2022/08/23 11:32:32;;;;;;;7.18;2.60;;;37.30;57.40;;;;;;4996047;28;20010;-84
2022/08/23 11:35:09;;;;;;;7.70;2.63;;;37.60;56.80;;;;;;4989718;28;20038;-85
2022/08/23 11:37:51;;;;;;;7.15;2.67;;;37.40;58.00;;;;;;4994945;28;20030;-84
2022/08/23 11:40:41;;;;;;;7.57;2.50;;;38.60;55.80;;;;;;4994781;28;20022;-85
2022/08/23 11:43:32;;;;;;;7.15;3.05;;;38.70;55.50;;;;;;5011404;28;20018;-84
2022/08/23 11:46:34;;;;;;;7.85;2.72;;;38.00;55.40;;;;;;5010905;28;20023;-84
2022/08/23 11:49:14;;;;;;;8.05;2.70;;;37.80;55.70;;;;;;4965051;28;20228;-84
2022/08/23 11:51:46;;;;;;;11.15;2.67;;;37.80;55.40;;;;;;4995498;28;20018;-85
2022/08/23 11:54:45;;;;;;;5.78;2.40;;;37.90;54.90;;;;;;5012757;28;20109;-85
2022/08/23 11:57:20;;;;;;;7.18;2.50;;;38.80;53.70;;;;;;4997649;28;20348;-84
2022/08/23 12:00:10;;;;;;;7.70;2.67;;;36.80;55.60;;;;;;4991111;28;20109;-84
2022/08/23 12:03:00;;;;;;;6.45;2.88;;;36.70;56.10;;;;;;4996964;28;20031;-84
2022/08/23 12:05:49;;;;;;;6.70;2.60;;;36.90;55.60;;;;;;5010997;28;20035;-84
2022/08/23 12:08:44;;;;;;;6.22;2.60;;;38.80;54.90;;;;;;4979802;28;20038;-85
2022/08/23 12:11:10;;;;;;;7.03;2.40;;;37.00;55.30;;;;;;4991445;28;20463;-84
2022/08/23 12:13:59;;;;;;;7.43;2.70;;;35.90;55.20;;;;;;4996347;28;20023;-84
2022/08/23 12:16:29;;;;;;;8.33;3.07;;;36.50;56.40;;;;;;4994117;28;20022;-84
2022/08/23 12:18:59;;;;;;;7.45;2.40;;;36.00;56.60;;;;;;4991753;28;20421;-84
2022/08/23 12:21:43;;;;;;;10.13;2.40;;;37.70;54.90;;;;;;4994493;28;20049;-85
2022/08/23 12:24:20;;;;;;;7.43;2.67;;;37.00;55.40;;;;;;5006277;28;20023;-85
2022/08/23 12:27:09;;;;;;;7.63;2.67;;;36.70;56.40;;;;;;4992904;28;20030;-84
2022/08/23 12:29:59;;;;;;;7.65;2.70;;;36.80;57.00;;;;;;4992300;28;20026;-85
2022/08/23 12:32:53;;;;;;;8.23;2.55;;;37.40;55.30;;;;;;5006372;28;20053;-85
2022/08/23 12:35:29;;;;;;;7.18;2.92;;;38.10;54.90;;;;;;4994396;28;20014;-85
2022/08/23 12:38:23;;;;;;;8.35;2.85;;;35.90;57.10;;;;;;5000364;28;20022;-85
2022/08/23 12:40:51;;;;;;;7.18;3.13;;;35.20;57.20;;;;;;4984703;28;20053;-85
2022/08/23 12:43:23;;;;;;;8.55;2.75;;;35.80;56.70;;;;;;4995260;28;20046;-85
2022/08/23 12:45:53;;;;;;;6.85;3.00;;;36.30;56.30;;;;;;4991490;28;20026;-85
2022/08/23 12:48:23;;;;;;;8.07;3.10;;;35.70;56.80;;;;;;4996228;28;20026;-84
2022/08/23 12:50:59;;;;;;;7.70;2.80;;;35.60;56.80;;;;;;4994588;28;20026;-84
2022/08/23 12:53:38;;;;;;;9.25;2.78;;;34.90;58.10;;;;;;4996974;28;20061;-84
2022/08/23 12:56:23;;;;;;;7.75;2.78;;;35.70;56.50;;;;;;4995793;28;20051;-84
2022/08/23 12:58:52;;;;;;;6.75;2.25;;;36.50;56.00;;;;;;4987466;28;20063;-84
2022/08/23 13:01:22;;;;;;;;;;;36.60;55.80;;;;;;4993779;28;20522;-84
2022/08/23 13:03:52;;;;;;;6.55;2.65;;;36.30;54.70;;;;;;4990020;28;19910;-84
2022/08/23 13:06:23;;;;;;;6.93;2.50;;;35.70;54.90;;;;;;4982351;28;20523;-84
2022/08/23 13:08:55;;;;;;;6.65;2.20;;;37.40;53.70;;;;;;4993489;28;20026;-84
2022/08/23 13:11:31;;;;;;;7.25;2.20;;;38.60;52.30;;;;;;4995460;28;20038;-84
2022/08/23 13:13:56;;;;;;;8.35;2.15;;;38.80;53.00;;;;;;4990526;28;20468;-84
2022/08/23 13:16:46;;;;;;;6.80;2.50;;;38.50;52.20;;;;;;4993408;28;20125;-84
2022/08/23 13:19:17;;;;;;;8.45;2.20;;;39.10;52.40;;;;;;4990185;28;20513;-84